Time;durP1;ratioP1;P1;durP2;ratioP2;P2;SDS_P1;SDS_P2;PMS_P1;PMS_P2;Temp;Humidity;BMP_temperature;BMP_pressure;BME280_temperature;BME280_humidity;BME280_pressure;Samples;Min_cycle;Max_cycle;Signal;HPM_P1;HPM_P2
2024/01/11 00:01:28;;;;;;;18.08;7.82;;;;;;;;;;5068304;28;20012;-79
2024/01/11 00:03:54;;;;;;;10.13;5.13;;;;;;;;;;5062356;28;20475;-79
2024/01/11 00:06:20;;;;;;;16.17;7.93;;;;;;;;;;5089547;28;20028;-78
2024/01/11 00:08:46;;;;;;;15.68;7.55;;;;;;;;;;5105546;28;20672;-79
2024/01/11 00:11:12;;;;;;;19.02;8.20;;;;;;;;;;5088326;28;20111;-78
2024/01/11 00:13:38;;;;;;;17.10;7.32;;;;;;;;;;5086509;28;20020;-78
2024/01/11 00:16:04;;;;;;;16.75;6.30;;;;;;;;;;5085221;28;20043;-79
2024/01/11 00:18:30;;;;;;;21.10;7.30;;;;;;;;;;5084145;28;20036;-79
2024/01/11 00:20:57;;;;;;;18.40;7.88;;;;;;;;;;5083450;28;20039;-79
2024/01/11 00:23:23;;;;;;;9.75;7.10;;;;;;;;;;5081040;28;20039;-79
2024/01/11 00:25:49;;;;;;;15.95;7.40;;;;;;;;;;5080211;28;20034;-79
2024/01/11 00:28:16;;;;;;;15.18;7.47;;;;;;;;;;5065477;28;20028;-79
2024/01/11 00:30:42;;;;;;;12.50;5.63;;;;;;;;;;5083902;28;20020;-78
2024/01/11 00:33:09;;;;;;;11.27;7.45;;;;;;;;;;5068302;28;20261;-78
2024/01/11 00:35:35;;;;;;;12.65;5.75;;;;;;;;;;5065203;28;20046;-79
2024/01/11 00:38:01;;;;;;;16.98;7.22;;;;;;;;;;5081828;28;20028;-78
2024/01/11 00:40:27;;;;;;;11.32;7.00;;;;;;;;;;5069632;28;20028;-79
2024/01/11 00:42:54;;;;;;;16.38;8.93;;;;;;;;;;5081154;28;20122;-78
2024/01/11 00:45:20;;;;;;;15.63;8.00;;;;;;;;;;5083898;28;20034;-79
2024/01/11 00:47:45;;;;;;;20.40;9.23;;;;;;;;;;5081695;28;20028;-78
2024/01/11 00:50:11;;;;;;;13.90;7.93;;;;;;;;;;5076297;28;20123;-78
2024/01/11 00:52:38;;;;;;;17.70;6.75;;;;;;;;;;5081068;28;20040;-78
2024/01/11 00:55:04;;;;;;;14.70;7.75;;;;;;;;;;5086192;28;20066;-78
2024/01/11 00:57:30;;;;;;;13.60;8.27;;;;;;;;;;5084149;28;20036;-79
2024/01/11 00:59:56;;;;;;;11.32;8.07;;;;;;;;;;5084839;28;20027;-78
2024/01/11 01:02:22;;;;;;;14.30;8.48;;;;;;;;;;5067214;28;20093;-79
2024/01/11 01:04:48;;;;;;;12.32;7.25;;;;;;;;;;5072790;28;20028;-78
2024/01/11 01:07:14;;;;;;;10.02;6.50;;;;;;;;;;5084403;28;20504;-78
2024/01/11 01:09:40;;;;;;;13.77;8.68;;;;;;;;;;5078307;28;20035;-78
2024/01/11 01:12:06;;;;;;;23.65;9.73;;;;;;;;;;5085505;28;20730;-78
2024/01/11 01:14:32;;;;;;;12.98;8.65;;;;;;;;;;5089724;28;20032;-79
2024/01/11 01:16:58;;;;;;;10.63;6.68;;;;;;;;;;5086993;28;20080;-78
2024/01/11 01:19:24;;;;;;;9.02;6.38;;;;;;;;;;5086117;28;20079;-78
2024/01/11 01:21:50;;;;;;;14.23;7.88;;;;;;;;;;5086710;28;20497;-78
2024/01/11 01:24:16;;;;;;;16.65;8.63;;;;;;;;;;5084048;28;20044;-78
2024/01/11 01:26:42;;;;;;;10.65;5.97;;;;;;;;;;5074959;28;20576;-78
2024/01/11 01:29:08;;;;;;;10.93;6.82;;;;;;;;;;5086016;28;20088;-78
2024/01/11 01:31:37;;;;;;;7.38;5.97;;;;;;;;;;5087309;28;20020;-78
2024/01/11 01:34:04;;;;;;;12.75;6.88;;;;;;;;;;5083595;28;20017;-78
2024/01/11 01:36:29;;;;;;;17.95;8.38;;;;;;;;;;5072641;28;20028;-78
2024/01/11 01:38:55;;;;;;;15.60;6.30;;;;;;;;;;5086705;28;20049;-78
2024/01/11 01:41:21;;;;;;;18.05;7.07;;;;;;;;;;5074220;28;20051;-79
2024/01/11 01:43:47;;;;;;;15.38;6.00;;;;;;;;;;5087900;28;20032;-78
2024/01/11 01:46:17;;;;;;;9.30;5.53;;;;;;;;;;5090080;28;20092;-78
2024/01/11 01:48:43;;;;;;;9.95;6.10;;;;;;;;;;5081431;28;20032;-78
2024/01/11 01:51:09;;;;;;;13.45;4.97;;;;;;;;;;5069275;28;20127;-79
2024/01/11 01:53:35;;;;;;;13.63;6.80;;;;;;;;;;5086675;28;20085;-77
2024/01/11 01:56:02;;;;;;;15.00;6.95;;;;;;;;;;5090132;28;20063;-78
2024/01/11 01:58:29;;;;;;;18.02;6.18;;;;;;;;;;5069769;28;20383;-78
2024/01/11 02:00:55;;;;;;;15.82;6.70;;;;;;;;;;5085887;28;20157;-79
2024/01/11 02:03:22;;;;;;;11.98;6.80;;;;;;;;;;5081911;28;20028;-79
2024/01/11 02:05:48;;;;;;;17.08;7.20;;;;;;;;;;5085788;28;20012;-78
2024/01/11 02:08:17;;;;;;;11.55;5.25;;;;;;;;;;5065192;28;20021;-78
2024/01/11 02:10:44;;;;;;;18.20;9.10;;;;;;;;;;5101889;28;20020;-77
2024/01/11 02:13:10;;;;;;;13.93;7.97;;;;;;;;;;5096580;28;20028;-78
2024/01/11 02:15:36;;;;;;;15.25;6.63;;;;;;;;;;5085151;28;20157;-78
2024/01/11 02:18:02;;;;;;;12.13;7.10;;;;;;;;;;5083490;28;20070;-78
2024/01/11 02:20:28;;;;;;;11.98;6.18;;;;;;;;;;5066823;28;20139;-78
2024/01/11 02:22:56;;;;;;;13.20;5.68;;;;;;;;;;5083687;28;20660;-79
2024/01/11 02:25:22;;;;;;;17.38;7.90;;;;;;;;;;5084257;28;20037;-78
2024/01/11 02:27:49;;;;;;;9.73;6.63;;;;;;;;;;5085063;28;20033;-78
2024/01/11 02:30:16;;;;;;;12.15;6.00;;;;;;;;;;5073132;28;20510;-79
2024/01/11 02:32:46;;;;;;;23.02;10.10;;;;;;;;;;5080941;28;20032;-79
2024/01/11 02:35:13;;;;;;;11.90;7.70;;;;;;;;;;5084979;28;20487;-78
2024/01/11 02:37:39;;;;;;;13.13;7.30;;;;;;;;;;5085442;28;20089;-78
2024/01/11 02:40:07;;;;;;;11.80;7.13;;;;;;;;;;5068020;28;20895;-78
2024/01/11 02:42:33;;;;;;;11.25;6.57;;;;;;;;;;5068527;28;20924;-78
2024/01/11 02:44:59;;;;;;;10.70;5.38;;;;;;;;;;5081325;28;20032;-78
2024/01/11 02:47:25;;;;;;;9.55;5.82;;;;;;;;;;5066507;28;20123;-79
2024/01/11 02:49:51;;;;;;;16.88;7.22;;;;;;;;;;5083584;28;20051;-79
2024/01/11 02:52:18;;;;;;;13.35;6.28;;;;;;;;;;5083647;28;20108;-78
2024/01/11 02:54:44;;;;;;;10.38;7.25;;;;;;;;;;5085327;28;20418;-78
2024/01/11 02:57:09;;;;;;;15.80;5.93;;;;;;;;;;5085419;28;20024;-78
2024/01/11 02:59:36;;;;;;;14.98;8.13;;;;;;;;;;5082504;28;20043;-78
2024/01/11 03:02:02;;;;;;;10.43;5.30;;;;;;;;;;5068201;28;20028;-79
2024/01/11 03:04:28;;;;;;;11.10;6.03;;;;;;;;;;5086069;28;20052;-78
2024/01/11 03:06:54;;;;;;;19.52;8.70;;;;;;;;;;5068471;28;20051;-78
2024/01/11 03:09:21;;;;;;;23.58;9.55;;;;;;;;;;5070804;28;20089;-78
2024/01/11 03:11:47;;;;;;;10.23;6.28;;;;;;;;;;5087021;28;20032;-78
2024/01/11 03:14:13;;;;;;;12.73;6.30;;;;;;;;;;5086415;28;20039;-78
2024/01/11 03:16:39;;;;;;;16.05;7.78;;;;;;;;;;5067347;28;20044;-78
2024/01/11 03:19:06;;;;;;;17.85;6.60;;;;;;;;;;5078976;28;20062;-79
2024/01/11 03:21:31;;;;;;;13.10;5.63;;;;;;;;;;5082253;28;20033;-78
2024/01/11 03:23:59;;;;;;;14.25;6.40;;;;;;;;;;5066040;28;20486;-78
2024/01/11 03:26:25;;;;;;;9.13;6.47;;;;;;;;;;5084808;28;20031;-79
2024/01/11 03:28:51;;;;;;;13.18;9.23;;;;;;;;;;5068543;28;20488;-78
2024/01/11 03:31:17;;;;;;;11.90;6.38;;;;;;;;;;5087378;28;20032;-78
2024/01/11 03:33:43;;;;;;;13.70;5.85;;;;;;;;;;5064354;28;20032;-78
2024/01/11 03:36:10;;;;;;;13.88;6.20;;;;;;;;;;5059145;28;20233;-78
2024/01/11 03:38:36;;;;;;;11.13;7.00;;;;;;;;;;5078751;28;20024;-78
2024/01/11 03:41:02;;;;;;;9.40;5.95;;;;;;;;;;5086017;28;20024;-78
2024/01/11 03:43:28;;;;;;;31.70;9.88;;;;;;;;;;5084006;28;20146;-78
2024/01/11 03:45:54;;;;;;;9.65;6.50;;;;;;;;;;5086204;28;20024;-78
2024/01/11 03:48:20;;;;;;;15.50;7.10;;;;;;;;;;5086131;28;20052;-78
2024/01/11 03:50:46;;;;;;;11.55;6.75;;;;;;;;;;5085102;28;20069;-77
2024/01/11 03:53:12;;;;;;;21.05;8.10;;;;;;;;;;5085023;28;20035;-78
2024/01/11 03:55:38;;;;;;;13.20;7.70;;;;;;;;;;5085488;28;20028;-78
2024/01/11 03:58:04;;;;;;;11.90;5.50;;;;;;;;;;5084166;28;20034;-78
2024/01/11 04:00:32;;;;;;;10.95;6.22;;;;;;;;;;5070510;28;20017;-78
2024/01/11 04:02:58;;;;;;;16.05;6.15;;;;;;;;;;5086697;28;20033;-78
2024/01/11 04:05:24;;;;;;;10.52;5.93;;;;;;;;;;5072997;28;20023;-78
2024/01/11 04:07:50;;;;;;;13.32;7.38;;;;;;;;;;5083451;28;20085;-78
2024/01/11 04:10:16;;;;;;;24.48;8.02;;;;;;;;;;5086069;28;20040;-78
2024/01/11 04:12:42;;;;;;;14.43;7.03;;;;;;;;;;5087761;28;20028;-78
2024/01/11 04:15:08;;;;;;;21.20;7.07;;;;;;;;;;5084192;28;20099;-78
2024/01/11 04:17:36;;;;;;;7.00;5.97;;;;;;;;;;5070350;28;20147;-78
2024/01/11 04:20:02;;;;;;;11.60;7.32;;;;;;;;;;5081378;28;20022;-78
2024/01/11 04:22:29;;;;;;;10.75;6.10;;;;;;;;;;5077899;28;20040;-78
2024/01/11 04:24:55;;;;;;;7.53;5.68;;;;;;;;;;5081416;28;20063;-78
2024/01/11 04:27:21;;;;;;;11.57;5.70;;;;;;;;;;5058612;28;20757;-78
2024/01/11 04:29:47;;;;;;;11.30;7.13;;;;;;;;;;5084206;28;20024;-78
2024/01/11 04:32:13;;;;;;;14.88;6.30;;;;;;;;;;5081462;28;20108;-78
2024/01/11 04:34:39;;;;;;;20.02;5.88;;;;;;;;;;5062953;28;20043;-78
2024/01/11 04:37:05;;;;;;;18.58;5.57;;;;;;;;;;5064474;28;20039;-79
2024/01/11 04:39:31;;;;;;;16.75;6.70;;;;;;;;;;5081444;28;20063;-77
2024/01/11 04:41:57;;;;;;;13.98;8.82;;;;;;;;;;5084450;28;20039;-78
2024/01/11 04:44:23;;;;;;;15.35;8.15;;;;;;;;;;5084025;28;20450;-78
2024/01/11 04:46:49;;;;;;;15.30;6.05;;;;;;;;;;5062267;28;20534;-78
2024/01/11 04:49:15;;;;;;;14.55;7.55;;;;;;;;;;5081046;28;20028;-78
2024/01/11 04:51:41;;;;;;;18.40;8.73;;;;;;;;;;5070454;28;20059;-78
2024/01/11 04:54:08;;;;;;;14.65;8.20;;;;;;;;;;5066151;28;20070;-78
2024/01/11 04:56:35;;;;;;;19.02;7.95;;;;;;;;;;5080933;28;20024;-78
2024/01/11 04:59:01;;;;;;;11.90;5.07;;;;;;;;;;5080088;28;20024;-78
2024/01/11 05:01:27;;;;;;;7.93;4.35;;;;;;;;;;5084246;28;20069;-78
2024/01/11 05:03:53;;;;;;;11.40;7.10;;;;;;;;;;5078233;28;20024;-77
2024/01/11 05:06:20;;;;;;;12.45;7.03;;;;;;;;;;5083792;28;20028;-78
2024/01/11 05:08:53;;;;;;;10.77;5.47;;;;;;;;;;5077138;28;20032;-78
2024/01/11 05:11:26;;;;;;;17.98;8.80;;;;;;;;;;5067203;28;20044;-77
2024/01/11 05:13:52;;;;;;;;;;;;;;;;;;5077114;28;20028;-78
2024/01/11 05:16:22;;;;;;;13.68;5.72;;;;;;;;;;5079159;28;19935;-78
2024/01/11 05:18:48;;;;;;;10.50;5.25;;;;;;;;;;5080482;28;20460;-78
2024/01/11 05:21:14;;;;;;;16.75;6.68;;;;;;;;;;5085002;28;20104;-78
2024/01/11 05:23:41;;;;;;;16.38;8.38;;;;;;;;;;5063563;28;20032;-78
2024/01/11 05:26:08;;;;;;;14.85;9.15;;;;;;;;;;5084775;28;20020;-79
2024/01/11 05:28:34;;;;;;;15.30;9.02;;;;;;;;;;5065234;28;20024;-78
2024/01/11 05:30:59;;;;;;;15.73;8.93;;;;;;;;;;5065708;28;20030;-78
2024/01/11 05:33:25;;;;;;;10.15;7.00;;;;;;;;;;5081769;28;20025;-78
2024/01/11 05:35:53;;;;;;;12.02;6.88;;;;;;;;;;5083243;28;20024;-78
2024/01/11 05:38:19;;;;;;;13.55;7.85;;;;;;;;;;5083561;28;20081;-78
2024/01/11 05:40:46;;;;;;;14.00;9.02;;;;;;;;;;5079055;28;20406;-78
2024/01/11 05:43:13;;;;;;;13.25;7.72;;;;;;;;;;5060664;28;20039;-79
2024/01/11 05:45:39;;;;;;;10.43;6.50;;;;;;;;;;5082350;28;20028;-78
2024/01/11 05:48:05;;;;;;;13.57;6.35;;;;;;;;;;5060786;28;20085;-79
2024/01/11 05:50:32;;;;;;;13.95;6.88;;;;;;;;;;5061451;28;20115;-77
2024/01/11 05:52:59;;;;;;;17.67;8.18;;;;;;;;;;5075164;28;20032;-77
2024/01/11 05:55:24;;;;;;;10.25;6.78;;;;;;;;;;5082981;28;20035;-78
2024/01/11 05:57:50;;;;;;;14.98;5.85;;;;;;;;;;5065622;28;20031;-78
2024/01/11 06:00:17;;;;;;;18.35;6.60;;;;;;;;;;5086411;28;20108;-77
2024/01/11 06:02:43;;;;;;;14.70;7.88;;;;;;;;;;5067155;28;20615;-78
2024/01/11 06:05:09;;;;;;;13.80;7.68;;;;;;;;;;5084052;28;20518;-79
2024/01/11 06:07:36;;;;;;;12.57;8.05;;;;;;;;;;5085879;28;20043;-78
2024/01/11 06:10:02;;;;;;;18.40;7.28;;;;;;;;;;5085153;28;20035;-78
2024/01/11 06:12:29;;;;;;;14.73;9.85;;;;;;;;;;5068164;28;20389;-78
2024/01/11 06:14:55;;;;;;;20.98;11.73;;;;;;;;;;5076775;28;20028;-77
2024/01/11 06:17:21;;;;;;;20.02;9.13;;;;;;;;;;5078201;28;20032;-79
2024/01/11 06:19:46;;;;;;;19.15;10.65;;;;;;;;;;5088194;28;20039;-78
2024/01/11 06:22:12;;;;;;;25.02;10.95;;;;;;;;;;5085910;28;20494;-78
2024/01/11 06:24:38;;;;;;;10.45;7.18;;;;;;;;;;5083127;28;20032;-77
2024/01/11 06:27:05;;;;;;;13.20;8.27;;;-7.40;99.90;;;;;;5074725;28;20084;-78
2024/01/11 06:29:31;;;;;;;13.23;6.00;;;;;;;;;;5083866;28;20113;-78
2024/01/11 06:31:57;;;;;;;10.55;6.63;;;;;;;;;;5086306;28;20131;-78
2024/01/11 06:34:23;;;;;;;11.18;6.45;;;;;;;;;;5081839;28;20032;-77
2024/01/11 06:36:49;;;;;;;12.07;6.00;;;;;;;;;;5067207;28;20082;-78
2024/01/11 06:39:15;;;;;;;12.57;9.13;;;;;;;;;;5076514;28;20032;-77
2024/01/11 06:41:41;;;;;;;15.30;8.07;;;;;;;;;;5064335;28;20216;-78
2024/01/11 06:44:07;;;;;;;21.17;7.80;;;;;;;;;;5077093;28;20539;-78
2024/01/11 06:46:36;;;;;;;19.67;10.35;;;;;;;;;;5049430;28;20028;-78
2024/01/11 06:49:02;;;;;;;15.82;7.70;;;;;;;;;;5085686;28;20202;-78
2024/01/11 06:51:27;;;;;;;24.88;9.43;;;;;;;;;;5066804;28;20097;-78
2024/01/11 06:53:54;;;;;;;16.65;8.88;;;;;;;;;;5084253;28;20031;-78
2024/01/11 06:56:20;;;;;;;21.13;8.20;;;-7.20;99.90;;;;;;5083121;28;20524;-79
2024/01/11 06:58:47;;;;;;;13.30;7.90;;;;;;;;;;5085780;28;20020;-78
2024/01/11 07:01:13;;;;;;;25.52;12.43;;;;;;;;;;5058534;28;20031;-78
2024/01/11 07:03:39;;;;;;;17.17;8.18;;;;;;;;;;5085380;28;20106;-78
2024/01/11 07:06:05;;;;;;;13.48;8.63;;;;;;;;;;5084799;28;20150;-78
2024/01/11 07:08:32;;;;;;;17.10;8.55;;;;;;;;;;5083207;28;20509;-78
2024/01/11 07:10:58;;;;;;;21.95;11.45;;;;;;;;;;5063680;28;20036;-78
2024/01/11 07:13:24;;;;;;;20.42;10.70;;;;;;;;;;5066967;28;20131;-78
2024/01/11 07:15:51;;;;;;;30.90;8.20;;;;;;;;;;5071036;28;20031;-78
2024/01/11 07:18:17;;;;;;;13.65;8.02;;;;;;;;;;5085696;28;20020;-78
2024/01/11 07:20:43;;;;;;;10.38;7.63;;;;;;;;;;5084614;28;20297;-78
2024/01/11 07:23:09;;;;;;;16.50;7.78;;;;;;;;;;5064285;28;20047;-78
2024/01/11 07:25:35;;;;;;;22.95;9.07;;;;;;;;;;5061903;28;20038;-78
2024/01/11 07:28:02;;;;;;;16.08;9.32;;;;;;;;;;5082135;28;20039;-78
2024/01/11 07:30:28;;;;;;;20.00;8.95;;;;;;;;;;5084648;28;20078;-78
2024/01/11 07:32:54;;;;;;;22.42;8.70;;;;;;;;;;5082065;28;20032;-78
2024/01/11 07:35:20;;;;;;;15.80;7.10;;;;;;;;;;5073466;28;20256;-78
2024/01/11 07:37:46;;;;;;;10.52;8.75;;;;;;;;;;5080448;28;20020;-78
2024/01/11 07:40:13;;;;;;;11.68;7.45;;;;;;;;;;5089913;28;20039;-78
2024/01/11 07:42:39;;;;;;;21.40;8.85;;;;;;;;;;5067039;28;20403;-78
2024/01/11 07:45:06;;;;;;;22.67;8.70;;;;;;;;;;5080118;28;20090;-77
2024/01/11 07:47:32;;;;;;;15.45;8.10;;;;;;;;;;5079723;28;20055;-78
2024/01/11 07:49:58;;;;;;;12.77;7.57;;;;;;;;;;5064088;28;20108;-78
2024/01/11 07:52:24;;;;;;;23.13;10.65;;;;;;;;;;5081833;28;20649;-78
2024/01/11 07:54:50;;;;;;;18.10;9.85;;;;;;;;;;5080238;28;20095;-78
2024/01/11 07:57:16;;;;;;;11.13;7.55;;;;;;;;;;5085767;28;20375;-79
2024/01/11 07:59:42;;;;;;;19.23;7.95;;;;;;;;;;5069076;28;20013;-78
2024/01/11 08:02:08;;;;;;;16.75;8.85;;;;;;;;;;5085733;28;20032;-79
2024/01/11 08:04:34;;;;;;;14.55;5.82;;;;;;;;;;5062323;28;20103;-78
2024/01/11 08:07:01;;;;;;;19.83;8.95;;;;;;;;;;5048215;28;20089;-78
2024/01/11 08:09:28;;;;;;;17.00;9.07;;;;;;;;;;5084309;28;20085;-78
2024/01/11 08:11:54;;;;;;;16.00;7.93;;;;;;;;;;5084289;28;20054;-79
2024/01/11 08:14:21;;;;;;;15.15;9.55;;;;;;;;;;5081718;28;20031;-78
2024/01/11 08:16:46;;;;;;;22.75;10.50;;;;;;;;;;5065100;28;20017;-79
2024/01/11 08:19:14;;;;;;;13.25;7.28;;;;;;;;;;5080967;28;20051;-78
2024/01/11 08:21:41;;;;;;;19.40;9.50;;;;;;;;;;5097281;28;20410;-78
2024/01/11 08:24:07;;;;;;;18.40;10.43;;;;;;;;;;5076312;28;20409;-78
2024/01/11 08:26:33;;;;;;;17.17;10.23;;;;;;;;;;5078097;28;20051;-78
2024/01/11 08:28:59;;;;;;;20.67;10.05;;;;;;;;;;5080899;28;20028;-78
2024/01/11 08:31:25;;;;;;;20.42;9.57;;;;;;;;;;5084259;28;20100;-78
2024/01/11 08:33:51;;;;;;;19.60;9.77;;;;;;;;;;5067668;28;20397;-78
2024/01/11 08:36:18;;;;;;;11.45;8.20;;;;;;;;;;5086902;28;20028;-77
2024/01/11 08:38:44;;;;;;;20.95;12.82;;;;;;;;;;5061978;28;20024;-78
2024/01/11 08:41:10;;;;;;;27.75;11.88;;;;;;;;;;5065407;28;20038;-78
2024/01/11 08:43:36;;;;;;;35.55;16.45;;;;;;;;;;5084662;28;20020;-78
2024/01/11 08:46:02;;;;;;;29.05;13.25;;;;;;;;;;5086681;28;20020;-77
2024/01/11 08:48:28;;;;;;;43.47;16.00;;;;;;;;;;5076308;28;20035;-78
2024/01/11 08:50:54;;;;;;;44.95;15.52;;;;;;;;;;5063829;28;20237;-78
2024/01/11 08:53:21;;;;;;;39.53;12.45;;;-4.90;99.90;;;;;;5078844;28;20450;-78
2024/01/11 08:55:47;;;;;;;22.95;12.27;;;;;;;;;;5087218;28;20043;-77
2024/01/11 08:58:14;;;;;;;34.10;14.02;;;;;;;;;;5082073;28;20063;-78
2024/01/11 09:00:40;;;;;;;44.03;19.67;;;;;;;;;;5064848;28;20024;-78
2024/01/11 09:03:06;;;;;;;46.03;20.45;;;;;;;;;;5065925;28;20036;-78
2024/01/11 09:05:32;;;;;;;42.75;19.60;;;;;;;;;;5083508;28;20032;-78
2024/01/11 09:07:59;;;;;;;49.92;21.92;;;;;;;;;;5066811;28;20035;-78
2024/01/11 09:10:25;;;;;;;56.03;26.85;;;;;;;;;;5068063;28;20036;-78
2024/01/11 09:12:51;;;;;;;67.70;23.55;;;;;;;;;;5087672;28;20031;-78
2024/01/11 09:15:18;;;;;;;44.85;20.25;;;;;;;;;;5083521;28;20203;-78
2024/01/11 09:17:45;;;;;;;39.63;16.70;;;;;;;;;;5083463;28;20386;-78
2024/01/11 09:20:14;;;;;;;31.10;16.85;;;;;;;;;;5085510;28;20042;-78
2024/01/11 09:22:40;;;;;;;28.20;12.75;;;;;;;;;;5086889;28;20105;-79
2024/01/11 09:25:07;;;;;;;27.25;12.63;;;;;;;;;;5063219;28;20032;-78
2024/01/11 09:27:33;;;;;;;27.73;13.40;;;;;;;;;;5087309;28;20020;-79
2024/01/11 09:29:59;;;;;;;24.77;11.65;;;;;;;;;;5087353;28;20034;-79
2024/01/11 09:32:25;;;;;;;22.15;12.25;;;;;;;;;;5071360;28;20036;-79
2024/01/11 09:34:51;;;;;;;22.35;11.25;;;;;;;;;;5078743;28;20030;-78
2024/01/11 09:37:17;;;;;;;22.33;10.73;;;;;;;;;;5089265;28;20024;-79
2024/01/11 09:39:43;;;;;;;23.33;10.30;;;;;;;;;;5069980;28;20040;-79
2024/01/11 09:42:11;;;;;;;21.52;9.32;;;;;;;;;;5088708;28;20064;-78
2024/01/11 09:44:38;;;;;;;21.35;11.10;;;;;;;;;;5070365;28;20509;-79
2024/01/11 09:47:05;;;;;;;22.77;10.25;;;;;;;;;;5087281;28;20028;-78
2024/01/11 09:49:31;;;;;;;15.27;8.70;;;;;;;;;;5071090;28;20028;-79
2024/01/11 09:51:57;;;;;;;21.48;9.40;;;;;;;;;;5093890;28;20464;-79
2024/01/11 09:54:24;;;;;;;30.77;11.80;;;;;;;;;;5064963;28;20092;-78
2024/01/11 09:56:51;;;;;;;23.23;12.73;;;;;;;;;;5072605;28;20065;-79
2024/01/11 09:59:19;;;;;;;26.20;11.25;;;;;;;;;;5084050;28;20028;-78
2024/01/11 10:01:46;;;;;;;16.52;9.75;;;;;;;;;;5084342;28;20769;-79
2024/01/11 10:04:13;;;;;;;30.55;12.13;;;;;;;;;;5066920;28;20114;-79
2024/01/11 10:06:39;;;;;;;29.83;12.65;;;;;;;;;;5066644;28;20027;-79
2024/01/11 10:09:05;;;;;;;25.65;12.00;;;;;;;;;;5088512;28;20078;-79
2024/01/11 10:11:31;;;;;;;27.88;12.52;;;;;;;;;;5087265;28;20032;-78
2024/01/11 10:13:58;;;;;;;26.25;11.80;;;;;;;;;;5056059;28;20479;-78
2024/01/11 10:16:25;;;;;;;36.78;14.82;;;;;;;;;;5087932;28;20101;-77
2024/01/11 10:18:54;;;;;;;29.38;11.48;;;;;;;;;;5088831;28;20165;-78
2024/01/11 10:21:20;;;;;;;42.33;16.98;;;;;;;;;;5085483;28;20020;-78
2024/01/11 10:23:46;;;;;;;45.47;20.92;;;;;;;;;;5071475;28;20024;-77
2024/01/11 10:26:12;;;;;;;29.35;13.30;;;;;;;;;;5088377;28;20028;-78
2024/01/11 10:28:38;;;;;;;36.83;14.02;;;;;;;;;;5056345;28;20024;-78
2024/01/11 10:31:06;;;;;;;44.05;15.15;;;;;;;;;;5079630;28;20028;-78
2024/01/11 10:33:33;;;;;;;30.55;15.68;;;;;;;;;;5071926;28;20045;-78
2024/01/11 10:36:00;;;;;;;33.20;14.85;;;;;;;;;;5073553;28;20036;-77
2024/01/11 10:38:26;;;;;;;27.48;12.57;;;;;;;;;;5068691;28;20062;-78
2024/01/11 10:40:55;;;;;;;25.23;10.10;;;-1.00;99.90;;;;;;5072316;28;20044;-78
2024/01/11 10:43:22;;;;;;;24.58;11.40;;;;;;;;;;5072123;28;20514;-78
2024/01/11 10:45:53;;;;;;;23.33;10.25;;;;;;;;;;5071014;28;20273;-78
2024/01/11 10:48:21;;;;;;;28.90;10.52;;;;;;;;;;5084032;28;20033;-78
2024/01/11 10:50:50;;;;;;;23.15;9.13;;;;;;;;;;5086390;28;20032;-78
2024/01/11 10:53:32;;;;;;;17.23;9.32;;;;;;;;;;5062854;28;20023;-78
2024/01/11 10:55:59;;;;;;;23.60;11.38;;;;;;;;;;5078392;28;20549;-78
2024/01/11 10:58:26;;;;;;;31.60;11.75;;;;;;;;;;5084428;28;20034;-78
2024/01/11 11:00:54;;;;;;;24.70;9.77;;;;;;;;;;5090137;28;20031;-78
2024/01/11 11:03:20;;;;;;;18.67;8.20;;;;;;;;;;5076188;28;20127;-79
2024/01/11 11:05:48;;;;;;;27.13;11.98;;;;;;;;;;5080026;28;20484;-78
2024/01/11 11:08:15;;;;;;;25.95;9.63;;;;;;;;;;5088178;28;20024;-78
2024/01/11 11:10:42;;;;;;;18.60;10.35;;;-0.50;99.90;;;;;;5068720;28;20038;-78
2024/01/11 11:13:10;;;;;;;20.73;9.35;;;-0.60;99.90;;;;;;5083177;28;20027;-78
2024/01/11 11:15:39;;;;;;;21.98;10.45;;;;;;;;;;5072967;28;20498;-78
2024/01/11 11:18:07;;;;;;;21.88;9.63;;;;;;;;;;5079569;28;20056;-78
2024/01/11 11:20:33;;;;;;;27.45;12.45;;;;;;;;;;5066283;28;20024;-78
2024/01/11 11:23:05;;;;;;;25.80;11.07;;;;;;;;;;5086058;28;20024;-78
2024/01/11 11:25:31;;;;;;;23.02;10.75;;;;;;;;;;5091153;28;20059;-78
2024/01/11 11:27:59;;;;;;;26.02;10.60;;;;;;;;;;5084820;28;20036;-78
2024/01/11 11:30:25;;;;;;;21.92;11.27;;;;;;;;;;5080421;28;20405;-78
2024/01/11 11:32:51;;;;;;;17.65;8.63;;;;;;;;;;5069852;28;20501;-78
2024/01/11 11:35:17;;;;;;;23.17;9.77;;;;;;;;;;5089093;28;20032;-78
2024/01/11 11:37:43;;;;;;;22.27;10.00;;;;;;;;;;5065906;28;20158;-78
2024/01/11 11:40:13;;;;;;;20.45;8.93;;;;;;;;;;5088771;28;20028;-78
2024/01/11 11:42:40;;;;;;;22.75;9.98;;;;;;;;;;5087880;28;20486;-78
2024/01/11 11:45:07;;;;;;;27.85;9.68;;;;;;;;;;5082116;28;20046;-79
2024/01/11 11:47:38;;;;;;;20.92;9.50;;;0.60;99.90;;;;;;5080463;28;20032;-78
2024/01/11 11:50:05;;;;;;;18.42;9.70;;;;;;;;;;5083488;28;20166;-79
2024/01/11 11:52:33;;;;;;;17.52;8.63;;;;;;;;;;5065578;28;20085;-78
2024/01/11 11:55:00;;;;;;;24.60;9.40;;;-0.40;99.90;;;;;;5082826;28;20086;-79
2024/01/11 11:57:30;;;;;;;19.30;9.20;;;;;;;;;;5070495;28;20582;-79
2024/01/11 11:59:59;;;;;;;22.63;10.25;;;;;;;;;;5071490;28;20036;-79
2024/01/11 12:02:26;;;;;;;21.83;10.55;;;0.50;99.90;;;;;;5084233;28;20024;-79
2024/01/11 12:04:53;;;;;;;23.08;10.80;;;;;;;;;;5084325;28;20098;-79
2024/01/11 12:07:20;;;;;;;27.95;10.32;;;;;;;;;;5084826;28;20024;-79
2024/01/11 12:09:47;;;;;;;21.05;10.27;;;;;;;;;;5080231;28;20123;-78
2024/01/11 12:12:13;;;;;;;22.38;10.27;;;;;;;;;;5081847;28;20043;-79
2024/01/11 12:14:39;;;;;;;20.98;9.63;;;;;;;;;;5087682;28;20402;-79
2024/01/11 12:17:06;;;;;;;21.23;7.82;;;0.60;99.90;;;;;;5086139;28;20024;-79
2024/01/11 12:19:32;;;;;;;25.55;8.82;;;;;;;;;;5084485;28;20024;-79
2024/01/11 12:22:00;;;;;;;23.08;9.85;;;;;;;;;;5086195;28;20032;-79
2024/01/11 12:24:26;;;;;;;21.55;8.65;;;;;;;;;;5084843;28;20036;-79
2024/01/11 12:26:57;;;;;;;28.00;9.88;;;;;;;;;;5054560;28;20039;-79
2024/01/11 12:29:23;;;;;;;27.08;12.15;;;;;;;;;;5083260;28;20047;-79
2024/01/11 12:31:51;;;;;;;33.78;14.07;;;;;;;;;;5084744;28;20025;-79
2024/01/11 12:34:17;;;;;;;30.45;10.50;;;;;;;;;;5066407;28;20399;-79
2024/01/11 12:36:43;;;;;;;21.35;10.10;;;;;;;;;;5063001;28;20043;-79
2024/01/11 12:39:13;;;;;;;29.55;10.60;;;;;;;;;;5083855;28;20028;-79
2024/01/11 12:41:39;;;;;;;23.70;12.07;;;;;;;;;;5085058;28;20070;-79
2024/01/11 12:44:05;;;;;;;23.02;10.75;;;;;;;;;;5063127;28;20403;-79
2024/01/11 12:46:32;;;;;;;22.98;10.98;;;;;;;;;;5081491;28;20559;-79
2024/01/11 12:49:00;;;;;;;24.50;10.18;;;;;;;;;;5084194;28;20030;-79
2024/01/11 12:51:26;;;;;;;28.40;10.63;;;;;;;;;;5068590;28;20032;-79
2024/01/11 12:53:53;;;;;;;22.55;10.30;;;;;;;;;;5084119;28;20024;-79
2024/01/11 12:56:21;;;;;;;28.02;10.70;;;;;;;;;;5089554;28;20078;-79
2024/01/11 12:58:47;;;;;;;23.67;9.07;;;;;;;;;;5049002;28;20024;-81
2024/01/11 13:01:14;;;;;;;25.20;9.73;;;;;;;;;;5107716;28;20025;-81
2024/01/11 13:03:40;;;;;;;23.13;9.40;;;;;;;;;;5075236;28;20047;-80
2024/01/11 13:06:08;;;;;;;20.83;10.43;;;;;;;;;;5067829;28;20091;-81
2024/01/11 13:08:37;;;;;;;25.98;11.23;;;;;;;;;;5082164;28;20055;-80
2024/01/11 13:11:06;;;;;;;19.80;9.13;;;;;;;;;;5068462;28;20052;-80
2024/01/11 13:13:33;;;;;;;24.67;10.70;;;;;;;;;;5080516;28;20040;-80
2024/01/11 13:15:59;;;;;;;17.15;8.93;;;;;;;;;;5084002;28;20391;-80
2024/01/11 13:18:25;;;;;;;24.80;10.15;;;;;;;;;;5080866;28;20035;-81
2024/01/11 13:20:51;;;;;;;18.20;9.38;;;;;;;;;;5067021;28;20630;-80
2024/01/11 13:23:20;;;;;;;19.10;9.73;;;;;;;;;;5079356;28;20667;-80
2024/01/11 13:25:50;;;;;;;22.40;10.05;;;;;;;;;;5081099;28;20025;-81
2024/01/11 13:28:16;;;;;;;19.35;8.45;;;;;;;;;;5062687;28;20032;-80
2024/01/11 13:30:43;;;;;;;29.80;11.32;;;;;;;;;;5083956;28;20440;-80
2024/01/11 13:33:10;;;;;;;17.70;9.38;;;;;;;;;;5061274;28;20101;-80
2024/01/11 13:35:36;;;;;;;18.88;8.38;;;;;;;;;;5066083;28;20059;-80
2024/01/11 13:38:02;;;;;;;24.27;10.40;;;;;;;;;;5061058;28;20119;-81
2024/01/11 13:40:29;;;;;;;21.27;8.55;;;;;;;;;;5065535;28;20078;-80
2024/01/11 13:42:58;;;;;;;17.58;7.70;;;;;;;;;;5076583;28;20028;-80
2024/01/11 13:45:28;;;;;;;17.48;8.82;;;;;;;;;;5083778;28;20040;-81
2024/01/11 13:47:54;;;;;;;20.50;8.68;;;;;;;;;;5082352;28;20021;-80
2024/01/11 13:50:20;;;;;;;28.88;9.60;;;;;;;;;;5083013;28;20040;-80
2024/01/11 13:52:46;;;;;;;17.08;8.77;;;;;;;;;;5066119;28;20028;-80
2024/01/11 13:55:13;;;;;;;23.88;11.30;;;;;;;;;;5086080;28;20050;-81
2024/01/11 13:57:40;;;;;;;19.27;8.93;;;;;;;;;;5061484;28;20086;-81
2024/01/11 14:00:06;;;;;;;18.92;7.85;;;;;;;;;;5082290;28;20490;-81
2024/01/11 14:02:33;;;;;;;20.40;8.10;;;;;;;;;;5081452;28;20273;-81
2024/01/11 14:04:59;;;;;;;24.02;10.65;;;;;;;;;;5083899;28;20119;-81
2024/01/11 14:07:25;;;;;;;17.25;8.32;;;;;;;;;;5061954;28;20567;-81
2024/01/11 14:09:52;;;;;;;23.80;9.05;;;;;;;;;;5069790;28;20036;-80
2024/01/11 14:12:18;;;;;;;26.48;10.90;;;;;;;;;;5069230;28;20107;-80
2024/01/11 14:14:44;;;;;;;25.67;11.13;;;;;;;;;;5065931;28;20115;-80
2024/01/11 14:17:10;;;;;;;18.40;8.30;;;;;;;;;;5085511;28;20094;-81
2024/01/11 14:19:37;;;;;;;16.48;7.93;;;;;;;;;;5068242;28;20465;-80